createdAt,value
2018-04-07T00:00:06.783Z,11.53
2018-04-07T00:02:34.879Z,16.87
2018-04-07T00:05:03.009Z,11.33
2018-04-07T00:07:31.164Z,11.83
2018-04-07T00:09:59.396Z,10.93
2018-04-07T00:12:27.611Z,10.40
2018-04-07T00:14:55.731Z,11.10
2018-04-07T00:17:23.835Z,12.93
2018-04-07T00:19:51.937Z,11.80
2018-04-07T00:22:20.068Z,10.53
2018-04-07T00:24:48.921Z,9.27
2018-04-07T00:27:17.089Z,8.77
2018-04-07T00:29:45.320Z,8.57
2018-04-07T00:32:13.448Z,10.63
2018-04-07T00:34:41.572Z,11.87
2018-04-07T00:37:09.662Z,11.07
2018-04-07T00:39:38.483Z,9.63
2018-04-07T00:42:06.558Z,10.77
2018-04-07T00:44:34.656Z,12.77
2018-04-07T00:47:02.810Z,11.07
2018-04-07T00:49:30.928Z,9.30
2018-04-07T00:51:59.041Z,9.43
2018-04-07T00:54:27.176Z,10.33
2018-04-07T00:56:55.282Z,14.37
2018-04-07T00:59:23.395Z,12.20
2018-04-07T01:01:52.345Z,10.73
2018-04-07T01:04:20.541Z,10.87
2018-04-07T01:06:48.670Z,12.73
2018-04-07T01:09:16.775Z,13.40
2018-04-07T01:11:44.876Z,11.70
2018-04-07T01:14:12.987Z,11.70
2018-04-07T01:16:41.110Z,10.87
2018-04-07T01:19:09.593Z,12.17
2018-04-07T01:21:38.455Z,12.50
2018-04-07T01:24:06.579Z,16.53
2018-04-07T01:26:34.665Z,14.13
2018-04-07T01:29:02.835Z,13.63
2018-04-07T01:31:30.934Z,15.87
2018-04-07T01:33:59.043Z,15.50
2018-04-07T01:36:27.161Z,20.17
2018-04-07T01:38:56.268Z,23.17
2018-04-07T01:41:24.505Z,23.50
2018-04-07T01:43:53.396Z,20.63
2018-04-07T01:46:21.567Z,16.37
2018-04-07T01:48:49.662Z,18.63
2018-04-07T01:51:17.802Z,15.70
2018-04-07T01:53:45.906Z,14.13
2018-04-07T01:56:14.000Z,13.63
2018-04-07T01:58:42.194Z,11.13
2018-04-07T02:01:10.368Z,10.87
2018-04-07T02:03:38.490Z,13.00
2018-04-07T02:06:06.622Z,11.97
2018-04-07T02:08:34.806Z,14.47
2018-04-07T02:11:02.906Z,14.10
2018-04-07T02:13:31.006Z,13.80
2018-04-07T02:15:59.112Z,12.30
2018-04-07T02:18:27.202Z,15.50
2018-04-07T02:20:55.394Z,16.23
2018-04-07T02:23:23.598Z,16.13
2018-04-07T02:25:51.705Z,14.87
2018-04-07T02:28:20.267Z,14.80
2018-04-07T02:30:48.462Z,12.67
2018-04-07T02:33:16.709Z,14.10
2018-04-07T02:35:44.917Z,17.53
2018-04-07T02:38:13.037Z,13.47
2018-04-07T02:40:41.144Z,16.53
2018-04-07T02:43:09.313Z,28.37
2018-04-07T02:45:37.423Z,37.13
2018-04-07T02:48:05.537Z,29.53
2018-04-07T02:50:33.646Z,42.73
2018-04-07T02:53:01.896Z,51.23
2018-04-07T02:55:29.996Z,63.50
2018-04-07T02:57:58.109Z,48.63
2018-04-07T03:00:26.256Z,59.23
2018-04-07T03:02:54.357Z,83.40
2018-04-07T03:05:22.500Z,40.90
2018-04-07T03:07:50.602Z,42.07
2018-04-07T03:10:18.700Z,19.90
2018-04-07T03:12:46.804Z,17.80
2018-04-07T03:15:14.926Z,11.13
2018-04-07T03:17:43.046Z,16.10
2018-04-07T03:20:11.172Z,13.17
2018-04-07T03:22:39.299Z,14.37
2018-04-07T03:25:07.384Z,18.03
2018-04-07T03:27:35.508Z,23.03
2018-04-07T03:30:03.604Z,19.40
2018-04-07T03:32:31.744Z,16.07
2018-04-07T03:34:59.970Z,12.97
2018-04-07T03:37:28.139Z,12.80
2018-04-07T03:39:57.044Z,19.83
2018-04-07T03:42:25.141Z,23.33
2018-04-07T03:44:53.279Z,20.43
2018-04-07T03:47:21.371Z,25.03
2018-04-07T03:49:49.564Z,17.00
2018-04-07T03:52:17.703Z,19.63
2018-04-07T03:54:45.838Z,22.17
2018-04-07T03:57:13.932Z,19.40
2018-04-07T03:59:42.271Z,14.47
2018-04-07T04:02:10.370Z,13.50
2018-04-07T04:04:38.469Z,14.57
2018-04-07T04:07:06.559Z,14.43
2018-04-07T04:09:34.663Z,14.00
2018-04-07T04:12:03.203Z,15.73
2018-04-07T04:14:32.075Z,18.47
2018-04-07T04:17:00.176Z,18.80
2018-04-07T04:19:28.285Z,22.13
2018-04-07T04:21:56.410Z,14.50
2018-04-07T04:24:24.511Z,15.23
2018-04-07T04:26:52.627Z,16.20
2018-04-07T04:29:20.753Z,17.97
2018-04-07T04:31:48.845Z,18.33
2018-04-07T04:34:16.956Z,21.27
2018-04-07T04:36:45.106Z,26.43
2018-04-07T04:39:13.350Z,19.53
2018-04-07T04:41:41.494Z,20.90
2018-04-07T04:44:09.620Z,22.27
2018-04-07T04:46:37.723Z,18.37
2018-04-07T04:49:05.920Z,16.63
2018-04-07T04:51:34.044Z,19.70
2018-04-07T04:54:02.169Z,20.13
2018-04-07T04:56:30.293Z,18.40
2018-04-07T04:58:58.390Z,20.57
2018-04-07T05:01:27.270Z,19.63
2018-04-07T05:03:55.364Z,19.63
2018-04-07T05:06:23.516Z,27.00
2018-04-07T05:08:51.655Z,41.80
2018-04-07T05:11:19.746Z,48.17
2018-04-07T05:13:47.908Z,61.00
2018-04-07T05:16:16.991Z,64.77
2018-04-07T05:18:45.188Z,67.33
2018-04-07T05:21:13.284Z,63.87
2018-04-07T05:23:42.184Z,66.03
2018-04-07T05:26:10.354Z,55.70
2018-04-07T05:28:38.473Z,51.93
2018-04-07T05:31:06.584Z,51.97
2018-04-07T05:33:35.005Z,56.37
2018-04-07T05:36:03.211Z,54.33
2018-04-07T05:38:31.305Z,58.87
2018-04-07T05:40:59.412Z,64.90
2018-04-07T05:43:27.520Z,69.87
2018-04-07T05:45:55.650Z,84.00
2018-04-07T05:48:24.505Z,104.17
2018-04-07T05:50:52.615Z,91.70
2018-04-07T05:53:23.252Z,90.03
2018-04-07T05:55:51.377Z,120.97
2018-04-07T05:58:19.482Z,123.83
2018-04-07T06:00:48.360Z,114.53
2018-04-07T06:03:17.167Z,118.23
2018-04-07T06:05:45.284Z,130.30
2018-04-07T06:08:13.396Z,120.50
2018-04-07T06:10:42.305Z,117.43
2018-04-07T06:13:10.399Z,125.30
2018-04-07T06:15:39.140Z,168.23
2018-04-07T06:18:08.298Z,145.10
2018-04-07T06:20:36.475Z,146.03
2018-04-07T06:23:04.606Z,153.80
2018-04-07T06:25:32.744Z,152.77
2018-04-07T06:28:00.880Z,153.43
2018-04-07T06:30:28.979Z,125.77
2018-04-07T06:32:57.254Z,125.23
2018-04-07T06:35:25.372Z,111.33
2018-04-07T06:37:53.476Z,73.73
2018-04-07T06:40:21.586Z,55.73
2018-04-07T06:42:49.708Z,50.10
2018-04-07T06:45:17.812Z,42.87
2018-04-07T06:47:45.934Z,35.13
2018-04-07T06:50:14.025Z,24.50
2018-04-07T06:52:42.174Z,21.37
2018-04-07T06:55:10.316Z,22.37
2018-04-07T06:57:38.431Z,25.00
2018-04-07T07:00:08.340Z,17.73
2018-04-07T07:02:36.581Z,19.20
2018-04-07T07:05:04.877Z,17.40
2018-04-07T07:07:33.055Z,15.23
2018-04-07T07:10:01.551Z,14.43
2018-04-07T07:12:29.906Z,13.53
2018-04-07T07:14:58.004Z,13.97
2018-04-07T07:17:26.091Z,16.07
2018-04-07T07:19:54.887Z,11.73
2018-04-07T07:22:22.985Z,12.67
2018-04-07T07:24:51.072Z,13.90
2018-04-07T07:27:19.245Z,11.33
2018-04-07T07:29:47.351Z,12.37
2018-04-07T07:32:15.439Z,13.33
2018-04-07T07:34:43.561Z,11.87
2018-04-07T07:37:11.675Z,10.63
2018-04-07T07:39:40.453Z,12.77
2018-04-07T07:42:08.657Z,10.87
2018-04-07T07:44:36.736Z,12.80
2018-04-07T07:47:04.840Z,10.70
2018-04-07T07:49:32.981Z,13.00
2018-04-07T07:52:01.096Z,10.70
2018-04-07T07:54:29.187Z,11.20
2018-04-07T07:56:57.275Z,10.57
2018-04-07T07:59:25.399Z,9.10
2018-04-07T08:01:53.571Z,9.70
2018-04-07T08:04:21.798Z,9.83
2018-04-07T08:06:50.032Z,10.37
2018-04-07T08:09:18.124Z,9.70
2018-04-07T08:11:47.002Z,11.87
2018-04-07T08:14:15.106Z,9.77
2018-04-07T08:16:43.196Z,9.70
2018-04-07T08:19:11.321Z,11.43
2018-04-07T08:21:39.422Z,8.67
2018-04-07T08:24:07.542Z,11.97
2018-04-07T08:26:35.632Z,9.17
2018-04-07T08:29:04.542Z,7.53
2018-04-07T08:31:32.627Z,7.33
2018-04-07T08:34:00.756Z,9.07
2018-04-07T08:36:28.926Z,8.13
2018-04-07T08:38:57.028Z,7.33
2018-04-07T08:41:25.920Z,8.10
2018-04-07T08:43:54.030Z,7.63
2018-04-07T08:46:22.151Z,6.37
2018-04-07T08:48:50.293Z,7.97
2018-04-07T08:51:19.178Z,6.90
2018-04-07T08:53:47.287Z,7.20
2018-04-07T08:56:15.409Z,8.60
2018-04-07T08:58:43.519Z,7.03
2018-04-07T09:01:11.599Z,5.67
2018-04-07T09:03:39.730Z,5.53
2018-04-07T09:06:07.952Z,6.03
2018-04-07T09:08:36.241Z,5.03
2018-04-07T09:11:04.449Z,5.93
2018-04-07T09:13:32.641Z,4.93
2018-04-07T09:16:00.747Z,5.00
2018-04-07T09:18:29.600Z,6.07
2018-04-07T09:20:57.710Z,8.53
2018-04-07T09:23:26.594Z,9.43
2018-04-07T09:25:54.701Z,5.77
2018-04-07T09:28:22.825Z,5.43
2018-04-07T09:30:50.966Z,6.23
2018-04-07T09:33:19.053Z,8.37
2018-04-07T09:35:47.148Z,6.93
2018-04-07T09:38:15.260Z,7.07
2018-04-07T09:40:43.428Z,6.00
2018-04-07T09:43:11.642Z,5.07
2018-04-07T09:45:40.462Z,5.90
2018-04-07T09:48:08.556Z,6.00
2018-04-07T09:50:36.658Z,7.63
2018-04-07T09:53:04.753Z,6.43
2018-04-07T09:55:32.858Z,8.50
2018-04-07T09:58:00.970Z,6.07
2018-04-07T10:00:29.073Z,6.23
2018-04-07T10:03:01.692Z,6.70
2018-04-07T10:05:30.597Z,6.43
2018-04-07T10:07:58.714Z,5.57
2018-04-07T10:10:26.842Z,7.33
2018-04-07T10:12:55.003Z,6.63
2018-04-07T10:15:23.880Z,6.37
2018-04-07T10:17:52.065Z,6.03
2018-04-07T10:20:20.183Z,4.53
2018-04-07T10:22:48.292Z,7.67
2018-04-07T10:25:16.400Z,6.47
2018-04-07T10:27:44.515Z,5.70
2018-04-07T10:30:12.613Z,6.80
2018-04-07T10:32:40.705Z,4.97
2018-04-07T10:35:08.817Z,5.80
2018-04-07T10:37:37.007Z,6.13
2018-04-07T10:40:05.215Z,10.57
2018-04-07T10:42:34.092Z,4.20
2018-04-07T10:45:02.192Z,6.60
2018-04-07T10:47:30.298Z,7.47
2018-04-07T10:49:58.420Z,4.33
2018-04-07T10:52:26.565Z,4.00
2018-04-07T10:54:54.770Z,3.73
2018-04-07T10:57:23.001Z,5.17
2018-04-07T10:59:51.215Z,3.97
2018-04-07T11:02:20.102Z,4.17
2018-04-07T11:04:48.204Z,4.70
2018-04-07T11:07:16.304Z,3.43
2018-04-07T11:09:44.396Z,2.90
2018-04-07T11:12:12.506Z,4.67
2018-04-07T11:14:40.717Z,4.77
2018-04-07T11:17:08.882Z,4.23
2018-04-07T11:19:37.076Z,5.23
2018-04-07T11:22:05.193Z,4.90
2018-04-07T11:24:33.340Z,13.20
2018-04-07T11:27:01.439Z,3.53
2018-04-07T11:29:30.337Z,3.53
2018-04-07T11:31:58.421Z,3.40
2018-04-07T11:34:26.527Z,3.07
2018-04-07T11:36:54.697Z,3.70
2018-04-07T11:39:22.829Z,5.97
2018-04-07T11:41:51.713Z,8.70
2018-04-07T11:44:19.817Z,5.13
2018-04-07T11:46:47.940Z,4.33
2018-04-07T11:49:16.050Z,7.73
2018-04-07T11:51:44.156Z,3.80
2018-04-07T11:54:12.290Z,4.37
2018-04-07T11:56:40.398Z,3.77
2018-04-07T11:59:08.483Z,6.43
2018-04-07T12:01:36.645Z,5.40
2018-04-07T12:04:04.736Z,7.17
2018-04-07T12:06:32.887Z,6.63
2018-04-07T12:09:01.092Z,5.43
2018-04-07T12:11:29.412Z,6.00
2018-04-07T12:13:57.498Z,4.33
2018-04-07T12:16:25.588Z,5.23
2018-04-07T12:18:53.713Z,5.20
2018-04-07T12:21:21.822Z,7.20
2018-04-07T12:23:50.010Z,4.27
2018-04-07T12:26:18.191Z,8.10
2018-04-07T12:28:46.280Z,6.33
2018-04-07T12:31:14.428Z,7.03
2018-04-07T12:33:42.631Z,7.97
2018-04-07T12:36:10.777Z,7.33
2018-04-07T12:38:38.871Z,9.50
2018-04-07T12:41:07.638Z,5.47
2018-04-07T12:43:35.767Z,9.47
2018-04-07T12:46:03.869Z,5.33
2018-04-07T12:48:32.043Z,6.77
2018-04-07T12:51:00.865Z,7.07
2018-04-07T12:53:28.972Z,7.30
2018-04-07T12:55:57.055Z,6.10
2018-04-07T12:58:25.212Z,9.93
2018-04-07T13:00:53.323Z,4.90
2018-04-07T13:03:21.464Z,4.97
2018-04-07T13:05:49.581Z,7.30
2018-04-07T13:08:17.708Z,7.40
2018-04-07T13:10:45.819Z,4.67
2018-04-07T13:13:13.913Z,6.53
2018-04-07T13:15:42.017Z,5.83
2018-04-07T13:18:10.265Z,5.03
2018-04-07T13:20:38.431Z,6.87
2018-04-07T13:23:06.539Z,8.30
2018-04-07T13:25:34.655Z,6.00
2018-04-07T13:28:02.789Z,5.40
2018-04-07T13:30:30.882Z,6.07
2018-04-07T13:32:58.988Z,6.50
2018-04-07T13:35:27.085Z,5.83
2018-04-07T13:37:55.301Z,5.63
2018-04-07T13:40:23.416Z,6.50
2018-04-07T13:42:51.539Z,7.87
2018-04-07T13:45:19.659Z,8.03
2018-04-07T13:47:47.769Z,5.03
2018-04-07T13:50:15.887Z,6.23
2018-04-07T13:52:43.987Z,5.47
2018-04-07T13:55:12.856Z,4.80
2018-04-07T13:57:40.986Z,6.63
2018-04-07T14:00:09.130Z,4.90
2018-04-07T14:02:37.839Z,7.50
2018-04-07T14:05:05.957Z,6.10
2018-04-07T14:07:34.115Z,5.10
2018-04-07T14:10:02.344Z,7.30
2018-04-07T14:12:31.228Z,4.83
2018-04-07T14:14:59.334Z,6.83
2018-04-07T14:17:27.452Z,7.07
2018-04-07T14:19:55.551Z,6.87
2018-04-07T14:22:23.670Z,8.57
2018-04-07T14:24:51.816Z,6.67
2018-04-07T14:27:19.965Z,6.90
2018-04-07T14:29:48.062Z,5.50
2018-04-07T14:32:16.165Z,7.23
2018-04-07T14:34:44.273Z,7.97
2018-04-07T14:37:12.361Z,9.03
2018-04-07T14:39:40.472Z,6.73
2018-04-07T14:42:08.584Z,6.00
2018-04-07T14:44:36.725Z,7.43
2018-04-07T14:47:04.853Z,5.10
2018-04-07T14:49:32.971Z,7.60
2018-04-07T14:52:01.099Z,7.73
2018-04-07T14:54:29.209Z,7.93
2018-04-07T14:56:57.317Z,4.87
2018-04-07T14:59:25.407Z,4.40
2018-04-07T15:01:54.299Z,4.27
2018-04-07T15:04:22.419Z,4.00
2018-04-07T15:06:51.109Z,5.10
2018-04-07T15:09:19.300Z,4.00
2018-04-07T15:11:47.606Z,5.90
2018-04-07T15:14:16.515Z,7.57
2018-04-07T15:16:44.617Z,7.47
2018-04-07T15:19:12.738Z,4.07
2018-04-07T15:21:40.854Z,5.60
2018-04-07T15:24:09.990Z,4.43
2018-04-07T15:26:38.080Z,4.75
2018-04-07T15:29:06.959Z,4.83
2018-04-07T15:31:35.547Z,6.93
2018-04-07T15:34:03.689Z,4.77
2018-04-07T15:36:31.820Z,5.33
2018-04-07T15:38:59.932Z,8.83
2018-04-07T15:41:28.065Z,4.93
2018-04-07T15:43:56.157Z,4.07
2018-04-07T15:46:24.244Z,5.70
2018-04-07T15:48:52.356Z,5.43
2018-04-07T15:51:20.532Z,4.73
2018-04-07T15:53:48.732Z,5.47
2018-04-07T15:56:16.970Z,6.40
2018-04-07T15:58:45.217Z,4.93
2018-04-07T16:01:13.341Z,7.10
2018-04-07T16:03:41.782Z,5.40
2018-04-07T16:06:09.965Z,4.07
2018-04-07T16:08:38.394Z,5.20
2018-04-07T16:11:06.522Z,4.33
2018-04-07T16:13:34.759Z,5.20
2018-04-07T16:16:03.045Z,5.50
2018-04-07T16:18:31.215Z,6.60
2018-04-07T16:20:59.406Z,11.77
2018-04-07T16:23:27.616Z,5.00
2018-04-07T16:25:56.507Z,4.60
2018-04-07T16:28:24.624Z,10.57
2018-04-07T16:30:52.735Z,8.63
2018-04-07T16:33:20.864Z,5.90
2018-04-07T16:35:49.326Z,4.13
2018-04-07T16:38:17.448Z,5.57
2018-04-07T16:40:45.552Z,8.17
2018-04-07T16:43:14.443Z,5.30
2018-04-07T16:45:43.012Z,6.63
2018-04-07T16:48:11.182Z,4.03
2018-04-07T16:50:39.376Z,4.70
2018-04-07T16:53:07.524Z,9.57
2018-04-07T16:55:36.196Z,3.83
2018-04-07T16:58:04.312Z,5.97
2018-04-07T17:00:33.275Z,4.27
2018-04-07T17:03:01.396Z,4.67
2018-04-07T17:05:29.712Z,4.73
2018-04-07T17:07:57.826Z,4.77
2018-04-07T17:10:26.704Z,6.13
2018-04-07T17:12:55.630Z,8.20
2018-04-07T17:15:23.783Z,3.37
2018-04-07T17:17:51.893Z,5.90
2018-04-07T17:20:20.170Z,8.00
2018-04-07T17:22:48.298Z,4.00
2018-04-07T17:25:17.187Z,7.13
2018-04-07T17:27:46.620Z,7.17
2018-04-07T17:30:14.926Z,5.83
2018-04-07T17:32:43.041Z,5.70
2018-04-07T17:35:11.941Z,5.47
2018-04-07T17:37:40.076Z,6.63
2018-04-07T17:40:08.199Z,5.37
2018-04-07T17:42:36.301Z,6.00
2018-04-07T17:45:04.433Z,6.33
2018-04-07T17:47:32.573Z,6.47
2018-04-07T17:50:00.700Z,5.73
2018-04-07T17:52:28.809Z,5.37
2018-04-07T17:54:56.921Z,5.07
2018-04-07T17:57:25.091Z,5.47
2018-04-07T17:59:53.231Z,5.43
2018-04-07T18:02:21.379Z,3.77
2018-04-07T18:04:49.498Z,5.43
2018-04-07T18:07:17.644Z,6.20
2018-04-07T18:09:45.770Z,4.87
2018-04-07T18:12:13.884Z,4.83
2018-04-07T18:14:42.002Z,3.67
2018-04-07T18:17:14.012Z,6.73
2018-04-07T18:19:43.578Z,3.63
2018-04-07T18:22:11.680Z,2.90
2018-04-07T18:24:39.788Z,5.63
2018-04-07T18:27:07.887Z,5.60
2018-04-07T18:29:36.052Z,5.23
2018-04-07T18:32:04.142Z,3.53
2018-04-07T18:34:32.253Z,3.27
2018-04-07T18:37:00.385Z,4.73
2018-04-07T18:39:28.496Z,3.67
2018-04-07T18:41:56.617Z,9.10
2018-04-07T18:44:24.721Z,5.63
2018-04-07T18:46:52.838Z,4.13
2018-04-07T18:49:20.999Z,4.50
2018-04-07T18:51:49.109Z,6.17
2018-04-07T18:54:19.811Z,3.63
2018-04-07T18:56:47.972Z,5.23
2018-04-07T18:59:16.073Z,4.03
2018-04-07T19:01:44.219Z,4.70
2018-04-07T19:04:12.353Z,6.67
2018-04-07T19:06:40.476Z,5.93
2018-04-07T19:09:08.584Z,4.17
2018-04-07T19:11:36.687Z,4.03
2018-04-07T19:14:04.839Z,5.60
2018-04-07T19:16:32.940Z,5.20
2018-04-07T19:19:01.164Z,4.43
2018-04-07T19:21:29.304Z,6.63
2018-04-07T19:23:57.544Z,4.47
2018-04-07T19:26:25.731Z,5.60
2018-04-07T19:28:53.860Z,4.50
2018-04-07T19:31:21.965Z,5.60
2018-04-07T19:33:50.081Z,8.27
2018-04-07T19:36:18.212Z,6.37
2018-04-07T19:38:46.926Z,4.57
2018-04-07T19:41:15.169Z,8.10
2018-04-07T19:43:43.264Z,5.60
2018-04-07T19:46:11.799Z,4.60
2018-04-07T19:48:39.904Z,4.47
2018-04-07T19:51:08.016Z,4.30
2018-04-07T19:53:36.885Z,5.70
2018-04-07T19:56:05.157Z,6.33
2018-04-07T19:58:33.272Z,8.33
2018-04-07T20:01:01.431Z,6.37
2018-04-07T20:03:29.829Z,5.43
2018-04-07T20:05:57.974Z,10.13
2018-04-07T20:08:27.203Z,6.83
2018-04-07T20:10:55.350Z,7.97
2018-04-07T20:13:23.524Z,5.73
2018-04-07T20:15:51.697Z,6.27
2018-04-07T20:18:19.853Z,6.03
2018-04-07T20:20:47.992Z,6.97
2018-04-07T20:23:16.125Z,7.40
2018-04-07T20:25:44.232Z,7.77
2018-04-07T20:28:12.342Z,7.10
2018-04-07T20:30:40.471Z,7.77
2018-04-07T20:33:08.569Z,4.77
2018-04-07T20:35:37.808Z,4.77
2018-04-07T20:38:05.936Z,5.43
2018-04-07T20:40:34.055Z,4.53
2018-04-07T20:43:03.434Z,5.70
2018-04-07T20:45:31.672Z,4.60
2018-04-07T20:47:59.784Z,5.60
2018-04-07T20:50:27.900Z,5.50
2018-04-07T20:52:56.014Z,6.13
2018-04-07T20:55:24.141Z,4.57
2018-04-07T20:57:53.037Z,6.80
2018-04-07T21:00:21.145Z,4.20
2018-04-07T21:02:49.438Z,5.90
2018-04-07T21:05:17.586Z,7.00
2018-04-07T21:07:46.489Z,7.03
2018-04-07T21:10:14.628Z,6.00
2018-04-07T21:12:42.742Z,5.83
2018-04-07T21:15:11.227Z,4.13
2018-04-07T21:17:39.315Z,5.57
2018-04-07T21:20:07.424Z,5.23
2018-04-07T21:22:35.543Z,4.63
2018-04-07T21:25:03.683Z,5.73
2018-04-07T21:27:33.306Z,4.73
2018-04-07T21:30:02.296Z,7.97
2018-04-07T21:32:30.705Z,6.50
2018-04-07T21:34:59.731Z,5.97
2018-04-07T21:37:27.850Z,5.97
2018-04-07T21:39:55.966Z,7.37
2018-04-07T21:42:24.114Z,6.90
2018-04-07T21:44:52.215Z,6.63
2018-04-07T21:47:20.373Z,6.13
2018-04-07T21:49:49.363Z,5.70
2018-04-07T21:52:17.513Z,4.20
2018-04-07T21:54:45.626Z,6.80
2018-04-07T21:57:13.754Z,6.13
2018-04-07T21:59:41.911Z,7.97
2018-04-07T22:02:10.026Z,7.40
2018-04-07T22:04:38.126Z,9.63
2018-04-07T22:07:06.216Z,6.27
2018-04-07T22:09:34.332Z,7.73
2018-04-07T22:12:02.415Z,5.73
2018-04-07T22:14:30.565Z,8.83
2018-04-07T22:16:58.799Z,13.17
2018-04-07T22:19:26.930Z,10.77
2018-04-07T22:21:56.225Z,11.17
2018-04-07T22:24:24.334Z,8.27
2018-04-07T22:26:52.480Z,7.17
2018-04-07T22:29:20.597Z,7.03
2018-04-07T22:31:49.496Z,8.50
2018-04-07T22:34:18.493Z,8.67
2018-04-07T22:36:46.698Z,6.60
2018-04-07T22:39:14.927Z,8.37
2018-04-07T22:41:43.168Z,6.30
2018-04-07T22:44:11.415Z,8.73
2018-04-07T22:46:39.967Z,6.03
2018-04-07T22:49:08.064Z,9.40
2018-04-07T22:51:36.163Z,6.57
2018-04-07T22:54:04.272Z,5.87
2018-04-07T22:56:33.869Z,7.77
2018-04-07T22:59:01.991Z,7.67
2018-04-07T23:01:30.155Z,9.07
2018-04-07T23:03:58.362Z,7.23
2018-04-07T23:06:26.607Z,9.03
2018-04-07T23:08:54.890Z,6.77
2018-04-07T23:11:23.101Z,8.43
2018-04-07T23:13:51.331Z,8.30
2018-04-07T23:16:19.542Z,7.23
2018-04-07T23:18:48.446Z,11.80
2018-04-07T23:21:16.570Z,8.33
2018-04-07T23:23:44.680Z,7.90
2018-04-07T23:26:12.797Z,6.30
2018-04-07T23:28:40.911Z,9.57
2018-04-07T23:31:09.931Z,7.13
2018-04-07T23:33:38.088Z,7.43
2018-04-07T23:36:06.186Z,8.70
2018-04-07T23:38:35.079Z,7.23
2018-04-07T23:41:03.180Z,8.60
2018-04-07T23:43:31.307Z,8.23
2018-04-07T23:45:59.416Z,6.67
2018-04-07T23:48:27.523Z,13.03
2018-04-07T23:50:55.675Z,6.57
2018-04-07T23:53:23.778Z,5.50
2018-04-07T23:55:51.865Z,10.37
2018-04-07T23:58:19.958Z,5.70
